sensor_id;sensor_type;location;lat;lon;timestamp;temperature;humidity
15879;DHT22;61999;51.514;14.614;2023-06-26T00:00:40;15.50;58.40
15879;DHT22;61999;51.514;14.614;2023-06-26T00:03:08;15.50;58.40
15879;DHT22;61999;51.514;14.614;2023-06-26T00:05:39;15.50;58.40
15879;DHT22;61999;51.514;14.614;2023-06-26T00:08:09;15.50;58.40
15879;DHT22;61999;51.514;14.614;2023-06-26T00:10:37;15.50;58.50
15879;DHT22;61999;51.514;14.614;2023-06-26T00:13:05;15.50;58.50
15879;DHT22;61999;51.514;14.614;2023-06-26T00:15:33;15.50;58.50
15879;DHT22;61999;51.514;14.614;2023-06-26T00:18:01;15.50;58.60
15879;DHT22;61999;51.514;14.614;2023-06-26T00:20:30;15.50;58.70
15879;DHT22;61999;51.514;14.614;2023-06-26T00:23:00;15.50;58.60
15879;DHT22;61999;51.514;14.614;2023-06-26T00:25:32;15.50;58.60
15879;DHT22;61999;51.514;14.614;2023-06-26T00:28:00;15.50;58.60
15879;DHT22;61999;51.514;14.614;2023-06-26T00:30:28;15.40;58.50
15879;DHT22;61999;51.514;14.614;2023-06-26T00:32:55;15.40;58.60
15879;DHT22;61999;51.514;14.614;2023-06-26T00:35:24;15.40;59.40
15879;DHT22;61999;51.514;14.614;2023-06-26T00:37:52;15.30;58.70
15879;DHT22;61999;51.514;14.614;2023-06-26T00:40:20;15.40;58.80
15879;DHT22;61999;51.514;14.614;2023-06-26T00:42:49;15.40;58.90
15879;DHT22;61999;51.514;14.614;2023-06-26T00:45:18;15.30;58.90
15879;DHT22;61999;51.514;14.614;2023-06-26T00:47:49;15.30;59.10
15879;DHT22;61999;51.514;14.614;2023-06-26T00:50:18;15.30;59.10
15879;DHT22;61999;51.514;14.614;2023-06-26T00:52:46;15.30;59.10
15879;DHT22;61999;51.514;14.614;2023-06-26T00:55:14;15.30;59.30
15879;DHT22;61999;51.514;14.614;2023-06-26T00:57:42;15.30;60.00
15879;DHT22;61999;51.514;14.614;2023-06-26T01:00:15;15.30;59.40
15879;DHT22;61999;51.514;14.614;2023-06-26T01:02:43;15.30;59.50
15879;DHT22;61999;51.514;14.614;2023-06-26T01:05:11;15.30;59.50
15879;DHT22;61999;51.514;14.614;2023-06-26T01:07:47;15.30;59.50
15879;DHT22;61999;51.514;14.614;2023-06-26T01:10:18;15.30;59.60
15879;DHT22;61999;51.514;14.614;2023-06-26T01:12:46;15.30;59.70
15879;DHT22;61999;51.514;14.614;2023-06-26T01:15:16;15.30;59.70
15879;DHT22;61999;51.514;14.614;2023-06-26T01:17:44;15.30;59.80
15879;DHT22;61999;51.514;14.614;2023-06-26T01:20:14;15.30;59.80
15879;DHT22;61999;51.514;14.614;2023-06-26T01:22:48;15.30;59.90
15879;DHT22;61999;51.514;14.614;2023-06-26T01:25:31;15.30;59.90
15879;DHT22;61999;51.514;14.614;2023-06-26T01:28:07;15.30;60.00
15879;DHT22;61999;51.514;14.614;2023-06-26T01:30:40;15.30;59.90
15879;DHT22;61999;51.514;14.614;2023-06-26T01:33:11;15.30;60.00
15879;DHT22;61999;51.514;14.614;2023-06-26T01:35:40;15.20;60.20
15879;DHT22;61999;51.514;14.614;2023-06-26T01:38:12;15.20;60.10
15879;DHT22;61999;51.514;14.614;2023-06-26T01:40:41;15.20;60.00
15879;DHT22;61999;51.514;14.614;2023-06-26T01:43:15;15.20;60.00
15879;DHT22;61999;51.514;14.614;2023-06-26T01:45:51;15.20;60.20
15879;DHT22;61999;51.514;14.614;2023-06-26T01:48:33;15.20;60.20
15879;DHT22;61999;51.514;14.614;2023-06-26T01:51:07;15.20;60.30
15879;DHT22;61999;51.514;14.614;2023-06-26T01:53:38;15.10;60.20
15879;DHT22;61999;51.514;14.614;2023-06-26T01:56:14;15.20;60.90
15879;DHT22;61999;51.514;14.614;2023-06-26T01:58:47;15.30;60.90
15879;DHT22;61999;51.514;14.614;2023-06-26T02:01:17;15.20;60.60
15879;DHT22;61999;51.514;14.614;2023-06-26T02:03:45;15.20;60.50
15879;DHT22;61999;51.514;14.614;2023-06-26T02:06:13;15.20;60.50
15879;DHT22;61999;51.514;14.614;2023-06-26T02:08:42;15.20;60.60
15879;DHT22;61999;51.514;14.614;2023-06-26T02:11:10;15.10;60.70
15879;DHT22;61999;51.514;14.614;2023-06-26T02:13:38;15.10;61.60
15879;DHT22;61999;51.514;14.614;2023-06-26T02:16:07;15.10;61.10
15879;DHT22;61999;51.514;14.614;2023-06-26T02:18:35;15.10;61.40
15879;DHT22;61999;51.514;14.614;2023-06-26T02:21:03;15.10;61.20
15879;DHT22;61999;51.514;14.614;2023-06-26T02:23:32;15.10;61.10
15879;DHT22;61999;51.514;14.614;2023-06-26T02:26:00;15.00;60.90
15879;DHT22;61999;51.514;14.614;2023-06-26T02:28:28;15.00;61.00
15879;DHT22;61999;51.514;14.614;2023-06-26T02:30:57;15.00;61.00
15879;DHT22;61999;51.514;14.614;2023-06-26T02:33:26;15.00;61.10
15879;DHT22;61999;51.514;14.614;2023-06-26T02:35:54;15.00;61.10
15879;DHT22;61999;51.514;14.614;2023-06-26T02:38:22;15.00;61.10
15879;DHT22;61999;51.514;14.614;2023-06-26T02:40:50;15.00;61.10
15879;DHT22;61999;51.514;14.614;2023-06-26T02:43:18;15.00;61.70
15879;DHT22;61999;51.514;14.614;2023-06-26T02:45:46;14.90;61.20
15879;DHT22;61999;51.514;14.614;2023-06-26T02:48:14;14.90;61.20
15879;DHT22;61999;51.514;14.614;2023-06-26T02:50:43;14.90;61.20
15879;DHT22;61999;51.514;14.614;2023-06-26T02:53:13;14.90;61.30
15879;DHT22;61999;51.514;14.614;2023-06-26T02:55:41;14.90;61.30
15879;DHT22;61999;51.514;14.614;2023-06-26T02:58:09;14.80;61.30
15879;DHT22;61999;51.514;14.614;2023-06-26T03:00:36;14.80;61.30
15879;DHT22;61999;51.514;14.614;2023-06-26T03:03:08;14.80;61.40
15879;DHT22;61999;51.514;14.614;2023-06-26T03:05:35;14.80;61.40
15879;DHT22;61999;51.514;14.614;2023-06-26T03:08:05;14.80;61.50
15879;DHT22;61999;51.514;14.614;2023-06-26T03:10:33;14.70;61.50
15879;DHT22;61999;51.514;14.614;2023-06-26T03:13:01;14.70;61.60
15879;DHT22;61999;51.514;14.614;2023-06-26T03:15:30;14.70;61.70
15879;DHT22;61999;51.514;14.614;2023-06-26T03:17:58;14.70;61.90
15879;DHT22;61999;51.514;14.614;2023-06-26T03:20:26;14.70;61.90
15879;DHT22;61999;51.514;14.614;2023-06-26T03:22:54;14.60;61.90
15879;DHT22;61999;51.514;14.614;2023-06-26T03:25:23;14.70;62.10
15879;DHT22;61999;51.514;14.614;2023-06-26T03:27:51;14.70;62.20
15879;DHT22;61999;51.514;14.614;2023-06-26T03:30:19;14.70;62.30
15879;DHT22;61999;51.514;14.614;2023-06-26T03:32:47;14.70;62.30
15879;DHT22;61999;51.514;14.614;2023-06-26T03:35:15;14.70;62.50
15879;DHT22;61999;51.514;14.614;2023-06-26T03:37:43;14.80;62.50
15879;DHT22;61999;51.514;14.614;2023-06-26T03:40:11;14.80;62.50
15879;DHT22;61999;51.514;14.614;2023-06-26T03:45:10;14.80;62.60
15879;DHT22;61999;51.514;14.614;2023-06-26T03:47:38;14.80;62.60
15879;DHT22;61999;51.514;14.614;2023-06-26T03:50:06;14.80;62.70
15879;DHT22;61999;51.514;14.614;2023-06-26T03:52:35;14.80;62.70
15879;DHT22;61999;51.514;14.614;2023-06-26T03:55:03;14.90;62.80
15879;DHT22;61999;51.514;14.614;2023-06-26T03:57:32;14.90;62.90
15879;DHT22;61999;51.514;14.614;2023-06-26T04:00:02;14.90;62.90
15879;DHT22;61999;51.514;14.614;2023-06-26T04:02:35;14.90;62.90
15879;DHT22;61999;51.514;14.614;2023-06-26T04:05:03;15.00;63.00
15879;DHT22;61999;51.514;14.614;2023-06-26T04:07:31;15.00;63.00
15879;DHT22;61999;51.514;14.614;2023-06-26T04:09:59;15.00;63.10
15879;DHT22;61999;51.514;14.614;2023-06-26T04:12:27;15.10;63.20
15879;DHT22;61999;51.514;14.614;2023-06-26T04:14:55;15.10;63.30
15879;DHT22;61999;51.514;14.614;2023-06-26T04:17:24;15.10;63.30
15879;DHT22;61999;51.514;14.614;2023-06-26T04:19:52;15.20;64.20
15879;DHT22;61999;51.514;14.614;2023-06-26T04:22:20;15.20;63.30
15879;DHT22;61999;51.514;14.614;2023-06-26T04:24:48;15.20;63.40
15879;DHT22;61999;51.514;14.614;2023-06-26T04:27:16;15.30;63.50
15879;DHT22;61999;51.514;14.614;2023-06-26T04:29:44;15.30;63.50
15879;DHT22;61999;51.514;14.614;2023-06-26T04:32:12;15.40;63.50
15879;DHT22;61999;51.514;14.614;2023-06-26T04:34:42;15.40;63.50
15879;DHT22;61999;51.514;14.614;2023-06-26T04:37:14;15.40;63.40
15879;DHT22;61999;51.514;14.614;2023-06-26T04:39:43;15.50;63.60
15879;DHT22;61999;51.514;14.614;2023-06-26T04:42:11;15.50;63.50
15879;DHT22;61999;51.514;14.614;2023-06-26T04:44:39;15.50;63.50
15879;DHT22;61999;51.514;14.614;2023-06-26T04:47:08;15.60;63.50
15879;DHT22;61999;51.514;14.614;2023-06-26T04:49:36;15.60;63.50
15879;DHT22;61999;51.514;14.614;2023-06-26T04:52:06;15.70;63.50
15879;DHT22;61999;51.514;14.614;2023-06-26T04:54:34;15.70;63.50
15879;DHT22;61999;51.514;14.614;2023-06-26T04:57:02;15.80;63.50
15879;DHT22;61999;51.514;14.614;2023-06-26T04:59:30;15.80;63.40
15879;DHT22;61999;51.514;14.614;2023-06-26T05:01:58;15.80;63.30
15879;DHT22;61999;51.514;14.614;2023-06-26T05:04:26;15.80;63.20
15879;DHT22;61999;51.514;14.614;2023-06-26T05:06:54;15.70;63.00
15879;DHT22;61999;51.514;14.614;2023-06-26T05:09:23;15.70;62.90
15879;DHT22;61999;51.514;14.614;2023-06-26T05:11:52;15.70;62.70
15879;DHT22;61999;51.514;14.614;2023-06-26T05:14:20;15.80;62.60
15879;DHT22;61999;51.514;14.614;2023-06-26T05:16:49;15.80;62.50
15879;DHT22;61999;51.514;14.614;2023-06-26T05:19:17;15.70;62.30
15879;DHT22;61999;51.514;14.614;2023-06-26T05:21:45;15.80;62.30
15879;DHT22;61999;51.514;14.614;2023-06-26T05:24:15;15.80;62.20
15879;DHT22;61999;51.514;14.614;2023-06-26T05:26:46;15.80;62.00
15879;DHT22;61999;51.514;14.614;2023-06-26T05:29:14;15.80;61.40
15879;DHT22;61999;51.514;14.614;2023-06-26T05:31:44;15.80;61.00
15879;DHT22;61999;51.514;14.614;2023-06-26T05:34:15;15.80;60.60
15879;DHT22;61999;51.514;14.614;2023-06-26T05:36:50;15.80;59.80
15879;DHT22;61999;51.514;14.614;2023-06-26T05:39:19;15.90;59.80
15879;DHT22;61999;51.514;14.614;2023-06-26T05:41:49;15.90;59.90
15879;DHT22;61999;51.514;14.614;2023-06-26T05:44:18;15.80;60.10
15879;DHT22;61999;51.514;14.614;2023-06-26T05:46:46;15.80;60.20
15879;DHT22;61999;51.514;14.614;2023-06-26T05:49:14;15.80;60.20
15879;DHT22;61999;51.514;14.614;2023-06-26T05:51:42;15.70;60.20
15879;DHT22;61999;51.514;14.614;2023-06-26T05:54:11;15.70;60.30
15879;DHT22;61999;51.514;14.614;2023-06-26T05:56:41;15.70;60.20
15879;DHT22;61999;51.514;14.614;2023-06-26T05:59:11;15.80;60.00
15879;DHT22;61999;51.514;14.614;2023-06-26T06:01:41;15.80;60.00
15879;DHT22;61999;51.514;14.614;2023-06-26T06:04:09;15.80;60.00
15879;DHT22;61999;51.514;14.614;2023-06-26T06:06:37;15.80;59.70
15879;DHT22;61999;51.514;14.614;2023-06-26T06:09:05;15.80;59.80
15879;DHT22;61999;51.514;14.614;2023-06-26T06:11:33;15.80;60.00
15879;DHT22;61999;51.514;14.614;2023-06-26T06:14:01;15.70;60.00
15879;DHT22;61999;51.514;14.614;2023-06-26T06:16:30;15.80;59.70
15879;DHT22;61999;51.514;14.614;2023-06-26T06:18:58;15.80;59.70
15879;DHT22;61999;51.514;14.614;2023-06-26T06:21:26;16.10;59.10
15879;DHT22;61999;51.514;14.614;2023-06-26T06:23:54;16.20;59.00
15879;DHT22;61999;51.514;14.614;2023-06-26T06:26:22;16.30;59.10
15879;DHT22;61999;51.514;14.614;2023-06-26T06:28:50;16.30;58.50
15879;DHT22;61999;51.514;14.614;2023-06-26T06:31:18;16.70;57.60
15879;DHT22;61999;51.514;14.614;2023-06-26T06:33:47;16.70;57.10
15879;DHT22;61999;51.514;14.614;2023-06-26T06:36:15;16.80;57.30
15879;DHT22;61999;51.514;14.614;2023-06-26T06:38:43;16.70;57.90
15879;DHT22;61999;51.514;14.614;2023-06-26T06:41:12;16.90;57.60
15879;DHT22;61999;51.514;14.614;2023-06-26T06:43:40;17.10;56.50
15879;DHT22;61999;51.514;14.614;2023-06-26T06:46:08;17.20;55.40
15879;DHT22;61999;51.514;14.614;2023-06-26T06:48:36;17.20;55.60
15879;DHT22;61999;51.514;14.614;2023-06-26T06:51:06;17.20;55.80
15879;DHT22;61999;51.514;14.614;2023-06-26T06:53:35;17.20;55.60
15879;DHT22;61999;51.514;14.614;2023-06-26T06:56:03;17.30;55.30
15879;DHT22;61999;51.514;14.614;2023-06-26T06:58:31;17.40;55.10
15879;DHT22;61999;51.514;14.614;2023-06-26T07:01:00;17.50;54.50
15879;DHT22;61999;51.514;14.614;2023-06-26T07:03:30;17.50;55.10
15879;DHT22;61999;51.514;14.614;2023-06-26T07:05:58;17.50;54.90
15879;DHT22;61999;51.514;14.614;2023-06-26T07:08:28;17.70;53.90
15879;DHT22;61999;51.514;14.614;2023-06-26T07:10:56;17.80;53.50
15879;DHT22;61999;51.514;14.614;2023-06-26T07:13:24;17.90;52.80
15879;DHT22;61999;51.514;14.614;2023-06-26T07:15:52;18.10;52.50
15879;DHT22;61999;51.514;14.614;2023-06-26T07:18:20;18.00;53.40
15879;DHT22;61999;51.514;14.614;2023-06-26T07:20:48;17.90;54.10
15879;DHT22;61999;51.514;14.614;2023-06-26T07:23:16;18.10;53.10
15879;DHT22;61999;51.514;14.614;2023-06-26T07:25:45;18.10;52.20
15879;DHT22;61999;51.514;14.614;2023-06-26T07:28:13;18.40;51.20
15879;DHT22;61999;51.514;14.614;2023-06-26T07:30:41;18.40;51.50
15879;DHT22;61999;51.514;14.614;2023-06-26T07:33:09;18.40;51.90
15879;DHT22;61999;51.514;14.614;2023-06-26T07:35:38;18.30;52.40
15879;DHT22;61999;51.514;14.614;2023-06-26T07:38:06;18.40;52.20
15879;DHT22;61999;51.514;14.614;2023-06-26T07:40:34;18.30;52.30
15879;DHT22;61999;51.514;14.614;2023-06-26T07:43:03;18.40;52.60
15879;DHT22;61999;51.514;14.614;2023-06-26T07:45:31;18.70;51.80
15879;DHT22;61999;51.514;14.614;2023-06-26T07:47:59;18.80;51.50
15879;DHT22;61999;51.514;14.614;2023-06-26T07:50:27;18.70;51.70
15879;DHT22;61999;51.514;14.614;2023-06-26T07:52:55;18.90;50.40
15879;DHT22;61999;51.514;14.614;2023-06-26T07:55:23;19.00;50.80
15879;DHT22;61999;51.514;14.614;2023-06-26T07:57:52;19.10;50.50
15879;DHT22;61999;51.514;14.614;2023-06-26T08:00:23;19.20;48.40
15879;DHT22;61999;51.514;14.614;2023-06-26T08:02:51;19.40;49.10
15879;DHT22;61999;51.514;14.614;2023-06-26T08:05:20;19.60;49.70
15879;DHT22;61999;51.514;14.614;2023-06-26T08:07:48;19.80;49.40
15879;DHT22;61999;51.514;14.614;2023-06-26T08:10:16;19.90;48.70
15879;DHT22;61999;51.514;14.614;2023-06-26T08:12:44;19.90;49.80
15879;DHT22;61999;51.514;14.614;2023-06-26T08:15:13;20.30;47.30
15879;DHT22;61999;51.514;14.614;2023-06-26T08:17:42;20.60;46.80
15879;DHT22;61999;51.514;14.614;2023-06-26T08:20:12;20.80;46.40
15879;DHT22;61999;51.514;14.614;2023-06-26T08:22:40;20.70;45.20
15879;DHT22;61999;51.514;14.614;2023-06-26T08:25:10;20.70;45.50
15879;DHT22;61999;51.514;14.614;2023-06-26T08:27:38;20.70;44.30
15879;DHT22;61999;51.514;14.614;2023-06-26T08:30:07;21.10;44.10
15879;DHT22;61999;51.514;14.614;2023-06-26T08:32:38;21.40;42.60
15879;DHT22;61999;51.514;14.614;2023-06-26T08:35:08;21.10;41.90
15879;DHT22;61999;51.514;14.614;2023-06-26T08:37:36;21.40;42.40
15879;DHT22;61999;51.514;14.614;2023-06-26T08:40:06;21.80;41.30
15879;DHT22;61999;51.514;14.614;2023-06-26T08:42:35;22.00;41.40
15879;DHT22;61999;51.514;14.614;2023-06-26T08:45:03;22.00;40.70
15879;DHT22;61999;51.514;14.614;2023-06-26T08:47:34;22.10;42.90
15879;DHT22;61999;51.514;14.614;2023-06-26T08:50:10;22.20;42.10
15879;DHT22;61999;51.514;14.614;2023-06-26T08:52:43;22.40;41.20
15879;DHT22;61999;51.514;14.614;2023-06-26T08:55:20;22.60;39.70
15879;DHT22;61999;51.514;14.614;2023-06-26T08:57:51;23.00;38.90
15879;DHT22;61999;51.514;14.614;2023-06-26T09:00:20;23.10;41.70
15879;DHT22;61999;51.514;14.614;2023-06-26T09:02:48;23.30;39.90
15879;DHT22;61999;51.514;14.614;2023-06-26T09:05:18;23.50;39.50
15879;DHT22;61999;51.514;14.614;2023-06-26T09:07:46;23.70;40.30
15879;DHT22;61999;51.514;14.614;2023-06-26T09:10:14;24.00;41.90
15879;DHT22;61999;51.514;14.614;2023-06-26T09:12:46;24.40;39.10
15879;DHT22;61999;51.514;14.614;2023-06-26T09:15:14;24.70;39.60
15879;DHT22;61999;51.514;14.614;2023-06-26T09:17:43;24.70;39.10
15879;DHT22;61999;51.514;14.614;2023-06-26T09:20:11;24.70;37.90
15879;DHT22;61999;51.514;14.614;2023-06-26T09:22:43;24.40;38.50
15879;DHT22;61999;51.514;14.614;2023-06-26T09:25:15;24.90;38.20
15879;DHT22;61999;51.514;14.614;2023-06-26T09:27:45;25.30;37.50
15879;DHT22;61999;51.514;14.614;2023-06-26T09:30:16;25.60;37.40
15879;DHT22;61999;51.514;14.614;2023-06-26T09:32:45;25.80;35.00
15879;DHT22;61999;51.514;14.614;2023-06-26T09:35:13;26.00;35.80
15879;DHT22;61999;51.514;14.614;2023-06-26T09:37:44;26.00;37.20
15879;DHT22;61999;51.514;14.614;2023-06-26T09:40:13;26.20;35.50
15879;DHT22;61999;51.514;14.614;2023-06-26T09:42:43;26.60;34.50
15879;DHT22;61999;51.514;14.614;2023-06-26T09:45:18;26.50;35.20
15879;DHT22;61999;51.514;14.614;2023-06-26T09:47:47;26.60;35.90
15879;DHT22;61999;51.514;14.614;2023-06-26T09:50:21;26.90;34.30
15879;DHT22;61999;51.514;14.614;2023-06-26T09:52:53;26.90;34.10
15879;DHT22;61999;51.514;14.614;2023-06-26T09:55:21;26.80;35.50
15879;DHT22;61999;51.514;14.614;2023-06-26T09:57:50;26.90;34.70
15879;DHT22;61999;51.514;14.614;2023-06-26T10:00:19;27.10;34.40
15879;DHT22;61999;51.514;14.614;2023-06-26T10:02:48;27.10;33.80
15879;DHT22;61999;51.514;14.614;2023-06-26T10:05:16;27.10;35.00
15879;DHT22;61999;51.514;14.614;2023-06-26T10:07:45;27.20;35.00
15879;DHT22;61999;51.514;14.614;2023-06-26T10:10:16;27.30;36.00
15879;DHT22;61999;51.514;14.614;2023-06-26T10:12:48;27.80;34.90
15879;DHT22;61999;51.514;14.614;2023-06-26T10:15:20;28.00;35.70
15879;DHT22;61999;51.514;14.614;2023-06-26T10:17:51;28.40;33.40
15879;DHT22;61999;51.514;14.614;2023-06-26T10:20:24;28.70;33.20
15879;DHT22;61999;51.514;14.614;2023-06-26T10:22:55;28.50;33.40
15879;DHT22;61999;51.514;14.614;2023-06-26T10:25:30;29.00;31.20
15879;DHT22;61999;51.514;14.614;2023-06-26T10:28:00;29.20;29.90
15879;DHT22;61999;51.514;14.614;2023-06-26T10:30:33;29.10;30.50
15879;DHT22;61999;51.514;14.614;2023-06-26T10:33:04;29.10;30.80
15879;DHT22;61999;51.514;14.614;2023-06-26T10:35:42;29.20;30.30
15879;DHT22;61999;51.514;14.614;2023-06-26T10:38:11;29.10;31.70
15879;DHT22;61999;51.514;14.614;2023-06-26T10:40:42;29.00;31.50
15879;DHT22;61999;51.514;14.614;2023-06-26T10:43:12;29.20;31.70
15879;DHT22;61999;51.514;14.614;2023-06-26T10:45:45;29.30;31.70
15879;DHT22;61999;51.514;14.614;2023-06-26T10:48:18;29.70;30.80
15879;DHT22;61999;51.514;14.614;2023-06-26T10:50:48;29.80;31.60
15879;DHT22;61999;51.514;14.614;2023-06-26T10:53:22;30.10;30.30
15879;DHT22;61999;51.514;14.614;2023-06-26T10:55:59;30.50;30.00
15879;DHT22;61999;51.514;14.614;2023-06-26T10:58:33;30.70;28.70
15879;DHT22;61999;51.514;14.614;2023-06-26T11:01:23;30.80;29.10
15879;DHT22;61999;51.514;14.614;2023-06-26T11:04:04;31.10;29.30
15879;DHT22;61999;51.514;14.614;2023-06-26T11:06:35;31.40;28.20
15879;DHT22;61999;51.514;14.614;2023-06-26T11:09:10;31.50;29.50
15879;DHT22;61999;51.514;14.614;2023-06-26T11:11:59;31.90;28.40
15879;DHT22;61999;51.514;14.614;2023-06-26T11:14:35;32.20;28.50
15879;DHT22;61999;51.514;14.614;2023-06-26T11:17:04;32.50;27.60
15879;DHT22;61999;51.514;14.614;2023-06-26T11:19:32;32.60;26.80
15879;DHT22;61999;51.514;14.614;2023-06-26T11:22:03;32.40;27.10
15879;DHT22;61999;51.514;14.614;2023-06-26T11:24:32;32.10;27.30
15879;DHT22;61999;51.514;14.614;2023-06-26T11:27:02;31.50;27.60
15879;DHT22;61999;51.514;14.614;2023-06-26T11:29:32;30.90;27.70
15879;DHT22;61999;51.514;14.614;2023-06-26T11:32:02;30.50;28.60
15879;DHT22;61999;51.514;14.614;2023-06-26T11:34:33;30.20;28.90
15879;DHT22;61999;51.514;14.614;2023-06-26T11:37:01;30.30;28.70
15879;DHT22;61999;51.514;14.614;2023-06-26T11:39:30;30.50;28.90
15879;DHT22;61999;51.514;14.614;2023-06-26T11:41:59;30.30;29.40
15879;DHT22;61999;51.514;14.614;2023-06-26T11:44:32;30.30;30.00
15879;DHT22;61999;51.514;14.614;2023-06-26T11:47:07;30.50;29.90
15879;DHT22;61999;51.514;14.614;2023-06-26T11:49:35;30.90;29.10
15879;DHT22;61999;51.514;14.614;2023-06-26T11:52:03;31.10;29.90
15879;DHT22;61999;51.514;14.614;2023-06-26T11:54:31;31.50;29.50
15879;DHT22;61999;51.514;14.614;2023-06-26T11:56:59;32.40;27.40
15879;DHT22;61999;51.514;14.614;2023-06-26T11:59:36;32.50;28.10
15879;DHT22;61999;51.514;14.614;2023-06-26T12:02:07;32.60;28.00
15879;DHT22;61999;51.514;14.614;2023-06-26T12:04:37;32.80;27.80
15879;DHT22;61999;51.514;14.614;2023-06-26T12:07:09;33.20;27.00
15879;DHT22;61999;51.514;14.614;2023-06-26T12:09:38;33.60;27.10
15879;DHT22;61999;51.514;14.614;2023-06-26T12:12:09;34.10;26.10
15879;DHT22;61999;51.514;14.614;2023-06-26T12:14:39;34.50;27.00
15879;DHT22;61999;51.514;14.614;2023-06-26T12:17:09;34.90;25.80
15879;DHT22;61999;51.514;14.614;2023-06-26T12:19:44;34.80;26.10
15879;DHT22;61999;51.514;14.614;2023-06-26T12:22:14;34.70;26.20
15879;DHT22;61999;51.514;14.614;2023-06-26T12:24:44;34.80;26.30
15879;DHT22;61999;51.514;14.614;2023-06-26T12:27:15;35.10;26.00
15879;DHT22;61999;51.514;14.614;2023-06-26T12:29:51;35.40;26.80
15879;DHT22;61999;51.514;14.614;2023-06-26T12:32:22;36.00;25.60
15879;DHT22;61999;51.514;14.614;2023-06-26T12:34:51;36.70;24.80
15879;DHT22;61999;51.514;14.614;2023-06-26T12:37:19;37.00;25.10
15879;DHT22;61999;51.514;14.614;2023-06-26T12:39:49;37.20;24.40
15879;DHT22;61999;51.514;14.614;2023-06-26T12:42:19;37.10;25.00
15879;DHT22;61999;51.514;14.614;2023-06-26T12:44:50;37.10;24.20
15879;DHT22;61999;51.514;14.614;2023-06-26T12:47:24;36.70;24.20
15879;DHT22;61999;51.514;14.614;2023-06-26T12:49:53;36.20;23.70
15879;DHT22;61999;51.514;14.614;2023-06-26T12:52:22;35.60;24.10
15879;DHT22;61999;51.514;14.614;2023-06-26T12:54:52;34.80;24.40
15879;DHT22;61999;51.514;14.614;2023-06-26T12:57:21;34.00;24.90
15879;DHT22;61999;51.514;14.614;2023-06-26T12:59:51;33.30;25.70
15879;DHT22;61999;51.514;14.614;2023-06-26T13:02:19;32.60;26.60
15879;DHT22;61999;51.514;14.614;2023-06-26T13:04:47;32.10;26.50
15879;DHT22;61999;51.514;14.614;2023-06-26T13:07:15;31.80;26.80
15879;DHT22;61999;51.514;14.614;2023-06-26T13:09:43;31.50;27.00
15879;DHT22;61999;51.514;14.614;2023-06-26T13:12:12;31.20;27.90
15879;DHT22;61999;51.514;14.614;2023-06-26T13:14:40;31.10;28.10
15879;DHT22;61999;51.514;14.614;2023-06-26T13:17:11;31.20;28.50
15879;DHT22;61999;51.514;14.614;2023-06-26T13:19:39;31.10;27.60
15879;DHT22;61999;51.514;14.614;2023-06-26T13:22:07;31.20;27.90
15879;DHT22;61999;51.514;14.614;2023-06-26T13:24:35;31.30;28.00
15879;DHT22;61999;51.514;14.614;2023-06-26T13:27:03;31.40;27.90
15879;DHT22;61999;51.514;14.614;2023-06-26T13:29:32;32.00;27.30
15879;DHT22;61999;51.514;14.614;2023-06-26T13:32:00;32.20;27.50
15879;DHT22;61999;51.514;14.614;2023-06-26T13:34:29;32.40;27.10
15879;DHT22;61999;51.514;14.614;2023-06-26T13:36:57;32.60;27.00
15879;DHT22;61999;51.514;14.614;2023-06-26T13:39:26;32.50;26.90
15879;DHT22;61999;51.514;14.614;2023-06-26T13:41:54;32.80;26.90
15879;DHT22;61999;51.514;14.614;2023-06-26T13:44:22;32.80;26.90
15879;DHT22;61999;51.514;14.614;2023-06-26T13:46:50;33.10;26.90
15879;DHT22;61999;51.514;14.614;2023-06-26T13:49:20;33.60;25.60
15879;DHT22;61999;51.514;14.614;2023-06-26T13:51:49;33.80;25.80
15879;DHT22;61999;51.514;14.614;2023-06-26T13:54:17;33.90;25.60
15879;DHT22;61999;51.514;14.614;2023-06-26T13:56:45;34.10;24.80
15879;DHT22;61999;51.514;14.614;2023-06-26T13:59:13;34.20;24.70
15879;DHT22;61999;51.514;14.614;2023-06-26T14:01:41;34.10;24.90
15879;DHT22;61999;51.514;14.614;2023-06-26T14:04:10;34.10;24.90
15879;DHT22;61999;51.514;14.614;2023-06-26T14:06:38;34.20;25.30
15879;DHT22;61999;51.514;14.614;2023-06-26T14:09:07;34.20;25.40
15879;DHT22;61999;51.514;14.614;2023-06-26T14:11:35;34.50;25.00
15879;DHT22;61999;51.514;14.614;2023-06-26T14:14:04;35.00;25.30
15879;DHT22;61999;51.514;14.614;2023-06-26T14:16:32;35.80;24.20
15879;DHT22;61999;51.514;14.614;2023-06-26T14:19:00;36.20;24.70
15879;DHT22;61999;51.514;14.614;2023-06-26T14:21:29;36.70;22.70
15879;DHT22;61999;51.514;14.614;2023-06-26T14:23:57;36.50;23.00
15879;DHT22;61999;51.514;14.614;2023-06-26T14:26:26;36.20;22.20
15879;DHT22;61999;51.514;14.614;2023-06-26T14:28:56;36.00;23.30
15879;DHT22;61999;51.514;14.614;2023-06-26T14:31:24;36.00;23.90
15879;DHT22;61999;51.514;14.614;2023-06-26T14:33:52;36.30;23.70
15879;DHT22;61999;51.514;14.614;2023-06-26T14:36:20;36.60;23.20
15879;DHT22;61999;51.514;14.614;2023-06-26T14:38:48;36.60;23.50
15879;DHT22;61999;51.514;14.614;2023-06-26T14:41:16;36.60;22.50
15879;DHT22;61999;51.514;14.614;2023-06-26T14:43:45;36.20;23.30
15879;DHT22;61999;51.514;14.614;2023-06-26T14:46:13;35.80;23.10
15879;DHT22;61999;51.514;14.614;2023-06-26T14:48:41;35.30;23.60
15879;DHT22;61999;51.514;14.614;2023-06-26T14:51:09;34.90;23.90
15879;DHT22;61999;51.514;14.614;2023-06-26T14:53:37;34.70;24.00
15879;DHT22;61999;51.514;14.614;2023-06-26T14:56:05;34.60;24.80
15879;DHT22;61999;51.514;14.614;2023-06-26T14:58:34;34.40;24.50
15879;DHT22;61999;51.514;14.614;2023-06-26T15:01:04;34.20;24.70
15879;DHT22;61999;51.514;14.614;2023-06-26T15:03:32;34.10;24.40
15879;DHT22;61999;51.514;14.614;2023-06-26T15:06:00;33.70;24.80
15879;DHT22;61999;51.514;14.614;2023-06-26T15:08:28;33.50;24.90
15879;DHT22;61999;51.514;14.614;2023-06-26T15:10:55;33.40;24.80
15879;DHT22;61999;51.514;14.614;2023-06-26T15:13:23;33.30;25.00
15879;DHT22;61999;51.514;14.614;2023-06-26T15:15:51;32.80;25.50
15879;DHT22;61999;51.514;14.614;2023-06-26T15:18:21;32.60;25.10
15879;DHT22;61999;51.514;14.614;2023-06-26T15:20:49;32.00;25.50
15879;DHT22;61999;51.514;14.614;2023-06-26T15:23:17;31.40;26.40
15879;DHT22;61999;51.514;14.614;2023-06-26T15:25:45;30.70;26.90
15879;DHT22;61999;51.514;14.614;2023-06-26T15:28:13;30.10;27.10
15879;DHT22;61999;51.514;14.614;2023-06-26T15:30:41;29.90;27.40